createdAt,value
2022-08-17T00:02:05.815Z,99.90
2022-08-17T00:04:50.564Z,99.90
2022-08-17T00:07:17.455Z,99.90
2022-08-17T00:09:44.088Z,99.90
2022-08-17T00:12:42.885Z,99.90
2022-08-17T00:14:57.809Z,99.90
2022-08-17T00:17:24.530Z,99.90
2022-08-17T00:19:51.163Z,99.90
2022-08-17T00:22:31.783Z,99.90
2022-08-17T00:25:07.391Z,99.90
2022-08-17T00:27:34.664Z,99.90
2022-08-17T00:30:01.637Z,99.90
2022-08-17T00:33:14.906Z,99.90
2022-08-17T00:35:18.244Z,99.90
2022-08-17T00:37:45.173Z,99.90
2022-08-17T00:40:14.420Z,99.90
2022-08-17T00:42:42.640Z,99.90
2022-08-17T00:45:11.842Z,99.90
2022-08-17T00:47:38.669Z,99.90
2022-08-17T00:50:09.394Z,99.90
2022-08-17T00:52:43.329Z,99.90
2022-08-17T00:55:11.026Z,99.90
2022-08-17T00:57:44.861Z,99.90
2022-08-17T01:00:28.127Z,99.90
2022-08-17T01:03:00.317Z,99.90
2022-08-17T01:05:31.066Z,99.90
2022-08-17T01:08:00.095Z,99.90
2022-08-17T01:10:57.430Z,99.90
2022-08-17T01:13:36.763Z,99.90
2022-08-17T01:16:28.295Z,99.90
2022-08-17T01:18:59.188Z,99.90
2022-08-17T01:21:37.929Z,99.90
2022-08-17T01:24:04.781Z,99.90
2022-08-17T01:26:33.124Z,99.90
2022-08-17T01:29:02.253Z,99.90
2022-08-17T01:31:33.240Z,99.90
2022-08-17T01:34:04.309Z,99.90
2022-08-17T01:36:31.069Z,99.90
2022-08-17T01:38:57.818Z,99.90
2022-08-17T01:41:24.670Z,1.00
2022-08-17T01:43:56.996Z,1.00
2022-08-17T01:46:29.046Z,1.00
2022-08-17T01:48:57.394Z,1.00
2022-08-17T01:51:32.868Z,1.00
2022-08-17T01:54:05.005Z,1.00
2022-08-17T01:56:33.875Z,1.00
2022-08-17T01:59:00.669Z,1.00
2022-08-17T02:01:30.434Z,1.00
2022-08-17T02:04:00.911Z,1.00
2022-08-17T02:06:31.406Z,1.00
2022-08-17T02:09:08.918Z,1.00
2022-08-17T02:11:43.599Z,1.00
2022-08-17T02:14:12.167Z,1.00
2022-08-17T02:16:41.331Z,1.00
2022-08-17T02:19:11.059Z,1.00
2022-08-17T02:21:40.424Z,1.00
2022-08-17T02:24:11.578Z,1.00
2022-08-17T02:26:38.335Z,1.00
2022-08-17T02:29:05.264Z,1.00
2022-08-17T02:31:32.063Z,1.00
2022-08-17T02:34:04.072Z,1.00
2022-08-17T02:36:33.696Z,1.00
2022-08-17T02:39:03.087Z,1.00
2022-08-17T02:41:30.370Z,1.00
2022-08-17T02:43:57.140Z,1.00
2022-08-17T02:46:23.851Z,1.00
2022-08-17T02:48:50.601Z,1.00
2022-08-17T02:51:17.416Z,1.00
2022-08-17T02:53:44.369Z,1.00
2022-08-17T02:56:11.038Z,1.00
2022-08-17T02:58:37.879Z,1.00
2022-08-17T03:01:07.562Z,1.00
2022-08-17T03:03:35.769Z,1.00
2022-08-17T03:06:03.221Z,1.00
2022-08-17T03:08:30.305Z,1.00
2022-08-17T03:10:57.180Z,1.00
2022-08-17T03:13:24.224Z,1.00
2022-08-17T03:15:51.431Z,1.00
2022-08-17T03:18:25.097Z,1.00
2022-08-17T03:20:58.293Z,1.00
2022-08-17T03:23:26.509Z,99.90
2022-08-17T03:25:55.181Z,99.90
2022-08-17T03:28:23.230Z,99.90
2022-08-17T03:30:51.034Z,99.90
2022-08-17T03:33:18.290Z,1.00
2022-08-17T03:35:45.671Z,1.00
2022-08-17T03:38:15.065Z,1.00
2022-08-17T03:40:56.569Z,1.00
2022-08-17T03:43:25.682Z,99.90
2022-08-17T03:46:28.367Z,99.90
2022-08-17T03:49:16.363Z,1.00
2022-08-17T03:52:01.999Z,46.70
2022-08-17T03:54:47.490Z,1.00
2022-08-17T03:57:14.245Z,5.20
2022-08-17T03:59:41.417Z,13.10
2022-08-17T04:02:12.777Z,1.00
2022-08-17T04:04:40.207Z,1.00
2022-08-17T04:07:07.649Z,1.00
2022-08-17T04:09:34.889Z,1.00
2022-08-17T04:12:04.860Z,1.00
2022-08-17T04:14:36.273Z,1.00
2022-08-17T04:17:18.266Z,1.00
2022-08-17T04:19:46.652Z,1.00
2022-08-17T04:22:33.318Z,1.00
2022-08-17T04:25:29.928Z,1.00
2022-08-17T04:27:57.154Z,1.00
2022-08-17T04:30:24.713Z,1.00
2022-08-17T04:33:00.566Z,1.00
2022-08-17T04:35:44.433Z,1.00
2022-08-17T04:38:14.104Z,1.00
2022-08-17T04:40:59.750Z,1.00
2022-08-17T04:43:28.031Z,1.00
2022-08-17T04:46:01.041Z,1.00
2022-08-17T04:48:36.327Z,1.00
2022-08-17T04:51:27.979Z,1.00
2022-08-17T04:53:59.873Z,1.00
2022-08-17T04:56:28.751Z,1.00
2022-08-17T04:59:00.409Z,1.00
2022-08-17T05:01:30.082Z,1.00
2022-08-17T05:03:59.739Z,1.00
2022-08-17T05:06:29.754Z,1.00
2022-08-17T05:08:58.582Z,1.00
2022-08-17T05:11:26.969Z,1.00
2022-08-17T05:13:55.355Z,1.00
2022-08-17T05:16:23.689Z,1.00
2022-08-17T05:18:50.744Z,1.00
2022-08-17T05:21:18.482Z,1.00
2022-08-17T05:23:49.202Z,1.00
2022-08-17T05:26:26.131Z,1.00
2022-08-17T05:29:00.669Z,1.00
2022-08-17T05:31:30.494Z,1.00
2022-08-17T05:33:57.331Z,1.00
2022-08-17T05:36:41.565Z,1.00
2022-08-17T05:39:16.115Z,1.00
2022-08-17T05:41:45.562Z,1.00
2022-08-17T05:44:12.234Z,1.00
2022-08-17T05:46:43.323Z,1.00
2022-08-17T05:49:11.037Z,1.00
2022-08-17T05:52:05.483Z,1.00
2022-08-17T05:54:50.975Z,99.90
2022-08-17T05:57:39.498Z,99.90
2022-08-17T06:00:20.265Z,99.90
2022-08-17T06:02:53.302Z,99.90
2022-08-17T06:05:48.518Z,99.90
2022-08-17T06:08:18.237Z,99.90
2022-08-17T06:11:01.722Z,99.90
2022-08-17T06:13:53.396Z,99.90
2022-08-17T06:16:34.295Z,99.90
2022-08-17T06:19:27.972Z,99.90
2022-08-17T06:21:55.453Z,99.90
2022-08-17T06:24:43.860Z,99.90
2022-08-17T06:27:36.982Z,99.90
2022-08-17T06:30:14.899Z,99.90
2022-08-17T06:32:45.485Z,99.90
2022-08-17T06:35:15.569Z,99.90
2022-08-17T06:38:10.379Z,99.90
2022-08-17T06:41:26.698Z,99.90
2022-08-17T06:44:09.891Z,99.90
2022-08-17T06:46:48.408Z,99.90
2022-08-17T06:49:21.895Z,99.90
2022-08-17T06:52:46.465Z,99.90
2022-08-17T06:55:18.598Z,99.90
2022-08-17T06:57:52.423Z,99.90
2022-08-17T07:00:26.630Z,99.90
2022-08-17T07:03:11.598Z,99.90
2022-08-17T07:05:42.509Z,91.60
2022-08-17T07:08:11.502Z,63.60
2022-08-17T07:10:44.494Z,56.50
2022-08-17T07:13:25.349Z,51.90
2022-08-17T07:15:58.385Z,37.50
2022-08-17T07:18:26.846Z,45.50
2022-08-17T07:21:00.193Z,21.80
2022-08-17T07:23:41.907Z,12.90
2022-08-17T07:26:09.315Z,1.20
2022-08-17T07:28:36.999Z,1.00
2022-08-17T07:31:04.941Z,1.00
2022-08-17T07:33:35.019Z,1.00
2022-08-17T07:36:02.283Z,1.00
2022-08-17T07:38:31.768Z,1.00
2022-08-17T07:41:02.030Z,1.00
2022-08-17T07:43:40.524Z,1.00
2022-08-17T07:46:41.367Z,1.00
2022-08-17T07:49:11.155Z,1.00
2022-08-17T07:51:52.880Z,1.00
2022-08-17T07:54:22.267Z,1.00
2022-08-17T07:56:56.153Z,1.00
2022-08-17T07:59:29.449Z,1.00
2022-08-17T08:02:07.906Z,1.00
2022-08-17T08:05:02.071Z,1.00
2022-08-17T08:07:36.986Z,1.00
2022-08-17T08:10:35.449Z,1.00
2022-08-17T08:13:14.603Z,1.00
2022-08-17T08:15:54.227Z,1.00
2022-08-17T08:18:53.562Z,1.00
2022-08-17T08:21:43.360Z,1.00
2022-08-17T08:24:40.275Z,1.00
2022-08-17T08:27:27.970Z,1.00
2022-08-17T08:30:04.948Z,1.00
2022-08-17T08:32:44.194Z,1.00
2022-08-17T08:35:37.158Z,1.00
2022-08-17T08:38:32.588Z,1.00
2022-08-17T08:41:44.663Z,1.00
2022-08-17T08:45:00.376Z,1.00
2022-08-17T08:47:32.083Z,1.00
2022-08-17T08:50:42.614Z,1.00
2022-08-17T08:53:30.670Z,1.00
2022-08-17T08:56:11.797Z,1.00
2022-08-17T08:59:02.153Z,1.00
2022-08-17T09:01:56.920Z,1.00
2022-08-17T09:05:10.764Z,1.00
2022-08-17T09:07:38.918Z,1.00
2022-08-17T09:10:27.052Z,1.00
2022-08-17T09:13:09.621Z,1.00
2022-08-17T09:15:47.170Z,1.00
2022-08-17T09:19:02.178Z,1.00
2022-08-17T09:21:22.589Z,1.00
2022-08-17T09:24:00.039Z,1.00
2022-08-17T09:27:09.893Z,1.00
2022-08-17T09:29:42.804Z,1.00
2022-08-17T09:32:19.490Z,1.00
2022-08-17T09:35:03.961Z,1.00
2022-08-17T09:37:53.386Z,1.00
2022-08-17T09:40:55.422Z,1.00
2022-08-17T09:43:50.752Z,1.00
2022-08-17T09:46:47.794Z,1.00
2022-08-17T09:49:29.665Z,1.00
2022-08-17T09:52:02.806Z,1.00
2022-08-17T09:54:39.156Z,1.00
2022-08-17T09:57:29.849Z,1.00
2022-08-17T10:00:16.333Z,1.00
2022-08-17T10:03:01.699Z,1.00
2022-08-17T10:05:31.453Z,1.00
2022-08-17T10:08:16.969Z,1.00
2022-08-17T10:11:10.110Z,1.00
2022-08-17T10:13:56.181Z,1.00
2022-08-17T10:16:40.729Z,1.00
2022-08-17T10:19:29.020Z,1.00
2022-08-17T10:22:35.430Z,1.00
2022-08-17T10:25:26.126Z,1.00
2022-08-17T10:28:11.743Z,1.00
2022-08-17T10:31:10.539Z,1.00
2022-08-17T10:34:18.757Z,1.00
2022-08-17T10:36:48.438Z,1.00
2022-08-17T10:39:27.165Z,1.00
2022-08-17T10:41:59.077Z,1.00
2022-08-17T10:44:47.631Z,1.00
2022-08-17T10:47:18.940Z,1.00
2022-08-17T10:49:52.336Z,1.00
2022-08-17T10:52:29.846Z,1.00
2022-08-17T10:54:58.157Z,1.00
2022-08-17T10:57:42.423Z,1.00
2022-08-17T11:00:35.015Z,1.00
2022-08-17T11:03:02.389Z,1.00
2022-08-17T11:05:43.471Z,1.00
2022-08-17T11:08:43.505Z,1.00
2022-08-17T11:11:38.391Z,1.00
2022-08-17T11:14:52.787Z,1.00
2022-08-17T11:17:41.502Z,1.00
2022-08-17T11:20:46.053Z,1.00
2022-08-17T11:23:44.902Z,1.00
2022-08-17T11:26:26.224Z,1.00
2022-08-17T11:28:59.954Z,1.00
2022-08-17T11:31:38.295Z,1.00
2022-08-17T11:34:15.952Z,1.00
2022-08-17T11:37:15.078Z,1.00
2022-08-17T11:40:06.711Z,1.00
2022-08-17T11:43:05.367Z,99.90
2022-08-17T11:45:50.802Z,99.90
2022-08-17T11:48:54.026Z,1.00
2022-08-17T11:51:42.133Z,1.00
2022-08-17T11:54:34.060Z,1.00
2022-08-17T11:57:27.466Z,1.00
2022-08-17T12:00:09.958Z,99.90
2022-08-17T12:02:47.468Z,99.90
2022-08-17T12:05:17.297Z,1.00
2022-08-17T12:07:51.978Z,1.00
2022-08-17T12:10:29.963Z,1.00
2022-08-17T12:12:57.609Z,1.00
2022-08-17T12:15:31.848Z,1.00
2022-08-17T12:17:58.884Z,1.00
2022-08-17T12:20:32.888Z,1.00
2022-08-17T12:23:41.224Z,1.00
2022-08-17T12:26:25.970Z,1.00
2022-08-17T12:28:59.849Z,1.00
2022-08-17T12:31:43.087Z,99.90
2022-08-17T12:34:17.295Z,1.00
2022-08-17T12:36:44.290Z,99.90
2022-08-17T12:39:14.024Z,79.80
2022-08-17T12:41:47.816Z,99.90
2022-08-17T12:44:32.158Z,1.00
2022-08-17T12:47:21.938Z,1.00
2022-08-17T12:49:52.214Z,1.00
2022-08-17T12:52:32.780Z,1.00
2022-08-17T12:55:07.037Z,1.00
2022-08-17T12:57:39.444Z,1.00
2022-08-17T13:00:23.560Z,1.00
2022-08-17T13:02:54.705Z,1.00
2022-08-17T13:05:54.471Z,1.00
2022-08-17T13:08:29.476Z,1.00
2022-08-17T13:10:57.951Z,1.00
2022-08-17T13:13:28.417Z,1.00
2022-08-17T13:16:11.894Z,1.00
2022-08-17T13:18:44.769Z,1.00
2022-08-17T13:21:27.062Z,1.00
2022-08-17T13:24:00.252Z,1.00
2022-08-17T13:26:35.181Z,1.00
2022-08-17T13:29:06.214Z,1.00
2022-08-17T13:31:49.177Z,99.90
2022-08-17T13:34:27.015Z,99.90
2022-08-17T13:37:29.832Z,1.00
2022-08-17T13:40:19.330Z,99.90
2022-08-17T13:42:54.648Z,99.90
2022-08-17T13:45:35.234Z,99.90
2022-08-17T13:48:13.635Z,99.90
2022-08-17T13:50:42.770Z,99.90
2022-08-17T13:53:31.534Z,99.90
2022-08-17T13:56:38.032Z,99.90
2022-08-17T13:59:14.828Z,99.90
2022-08-17T14:01:53.574Z,99.90
2022-08-17T14:04:27.931Z,99.90
2022-08-17T14:06:54.689Z,99.90
2022-08-17T14:09:31.372Z,99.90
2022-08-17T14:12:02.306Z,99.90
2022-08-17T14:14:30.197Z,99.90
2022-08-17T14:16:57.477Z,99.90
2022-08-17T14:19:24.774Z,99.90
2022-08-17T14:21:56.416Z,99.90
2022-08-17T14:24:35.367Z,99.90
2022-08-17T14:27:04.420Z,99.90
2022-08-17T14:29:33.132Z,99.90
2022-08-17T14:32:09.101Z,99.90
2022-08-17T14:34:35.851Z,99.90
2022-08-17T14:37:02.647Z,99.90
2022-08-17T14:39:32.763Z,99.90
2022-08-17T14:42:00.926Z,99.90
2022-08-17T14:44:27.544Z,99.90
2022-08-17T14:46:54.476Z,99.90
2022-08-17T14:49:21.229Z,90.30
2022-08-17T14:51:48.228Z,99.90
2022-08-17T14:54:32.993Z,99.90
2022-08-17T14:57:26.062Z,99.90
2022-08-17T14:59:54.797Z,99.90
2022-08-17T15:02:29.776Z,99.90
2022-08-17T15:05:03.390Z,99.90
2022-08-17T15:07:30.717Z,99.90
2022-08-17T15:10:02.047Z,99.90
2022-08-17T15:12:33.331Z,99.90
2022-08-17T15:15:04.835Z,79.90
2022-08-17T15:17:44.718Z,42.10
2022-08-17T15:20:21.834Z,38.30
2022-08-17T15:22:49.730Z,49.00
2022-08-17T15:25:17.677Z,51.10
2022-08-17T15:27:44.634Z,70.10
2022-08-17T15:30:11.898Z,66.80
2022-08-17T15:32:46.921Z,55.40
2022-08-17T15:35:27.889Z,78.80
2022-08-17T15:38:11.619Z,59.30
2022-08-17T15:40:42.163Z,32.60
2022-08-17T15:43:12.052Z,38.80
2022-08-17T15:45:39.913Z,48.60
2022-08-17T15:48:07.742Z,49.60
2022-08-17T15:50:35.647Z,45.20
2022-08-17T15:53:04.699Z,49.30
2022-08-17T15:55:32.995Z,43.80
2022-08-17T15:57:59.878Z,29.60
2022-08-17T16:00:28.665Z,28.60
2022-08-17T16:03:44.681Z,17.80
2022-08-17T16:05:50.134Z,22.30
2022-08-17T16:08:21.145Z,13.00
2022-08-17T16:10:49.722Z,19.00
2022-08-17T16:13:18.327Z,7.20
2022-08-17T16:15:56.847Z,7.60
2022-08-17T16:18:28.383Z,15.70
2022-08-17T16:20:55.324Z,12.70
2022-08-17T16:23:22.107Z,11.40
2022-08-17T16:25:52.782Z,20.90
2022-08-17T16:28:21.756Z,24.70
2022-08-17T16:30:49.130Z,13.80
2022-08-17T16:33:16.905Z,17.80
2022-08-17T16:35:43.863Z,14.10
2022-08-17T16:38:12.354Z,15.40
2022-08-17T16:40:40.447Z,17.10
2022-08-17T16:43:10.372Z,24.40
2022-08-17T16:45:40.082Z,34.40
2022-08-17T16:48:08.318Z,49.00
2022-08-17T16:50:35.971Z,61.70
2022-08-17T16:53:10.212Z,45.80
2022-08-17T16:55:38.057Z,57.90
2022-08-17T16:58:06.099Z,77.40
2022-08-17T17:00:33.675Z,99.90
2022-08-17T17:03:28.252Z,95.30
2022-08-17T17:06:18.574Z,99.90
2022-08-17T17:09:01.384Z,99.90
2022-08-17T17:11:46.702Z,99.90
2022-08-17T17:14:20.245Z,99.90
2022-08-17T17:17:03.783Z,99.90
2022-08-17T17:19:34.540Z,99.90
2022-08-17T17:22:20.221Z,99.90
2022-08-17T17:25:01.875Z,99.90
2022-08-17T17:27:50.086Z,99.90
2022-08-17T17:30:37.635Z,93.90
2022-08-17T17:33:10.019Z,99.90
2022-08-17T17:36:15.794Z,99.90
2022-08-17T17:38:53.279Z,94.10
2022-08-17T17:41:32.778Z,82.20
2022-08-17T17:44:07.527Z,87.60
2022-08-17T17:46:39.413Z,70.60
2022-08-17T17:49:06.452Z,92.60
2022-08-17T17:52:06.327Z,99.90
2022-08-17T17:55:05.997Z,94.10
2022-08-17T17:58:10.279Z,99.10
2022-08-17T18:01:09.940Z,99.90
2022-08-17T18:04:20.688Z,99.90
2022-08-17T18:06:50.946Z,99.90
2022-08-17T18:09:26.591Z,99.90
2022-08-17T18:12:23.342Z,99.90
2022-08-17T18:15:15.302Z,99.90
2022-08-17T18:18:06.960Z,99.90
2022-08-17T18:20:43.585Z,99.90
2022-08-17T18:23:27.662Z,99.90
2022-08-17T18:25:55.832Z,99.90
2022-08-17T18:28:29.756Z,99.90
2022-08-17T18:31:23.028Z,99.90
2022-08-17T18:33:53.592Z,99.90
2022-08-17T18:36:39.664Z,99.90
2022-08-17T18:39:19.318Z,99.90
2022-08-17T18:41:52.293Z,99.90
2022-08-17T18:44:35.641Z,99.90
2022-08-17T18:47:15.294Z,99.90
2022-08-17T18:49:47.039Z,99.90
2022-08-17T18:52:24.212Z,99.90
2022-08-17T18:55:05.732Z,99.90
2022-08-17T18:57:40.052Z,99.90
2022-08-17T19:00:35.779Z,99.90
2022-08-17T19:03:05.545Z,1.00
2022-08-17T19:05:41.972Z,1.00
2022-08-17T19:08:30.843Z,1.00
2022-08-17T19:11:20.662Z,1.00
2022-08-17T19:13:57.534Z,1.00
2022-08-17T19:16:34.353Z,1.00
2022-08-17T19:19:17.101Z,1.00
2022-08-17T19:21:53.126Z,1.00
2022-08-17T19:24:20.715Z,1.00
2022-08-17T19:26:58.990Z,1.00
2022-08-17T19:29:44.417Z,1.00
2022-08-17T19:32:12.548Z,1.00
2022-08-17T19:34:42.903Z,1.00
2022-08-17T19:37:37.752Z,1.00
2022-08-17T19:40:35.085Z,99.90
2022-08-17T19:43:08.934Z,83.90
2022-08-17T19:46:07.314Z,99.90
2022-08-17T19:48:55.836Z,99.90
2022-08-17T19:51:40.816Z,99.90
2022-08-17T19:54:44.623Z,10.80
2022-08-17T19:57:27.723Z,1.00
2022-08-17T20:00:00.889Z,1.00
2022-08-17T20:02:50.010Z,99.90
2022-08-17T20:05:25.700Z,1.00
2022-08-17T20:08:14.964Z,1.00
2022-08-17T20:10:48.156Z,1.00
2022-08-17T20:13:45.352Z,84.20
2022-08-17T20:16:12.560Z,1.00
2022-08-17T20:18:47.696Z,99.90
2022-08-17T20:21:21.495Z,27.70
2022-08-17T20:24:04.584Z,1.00
2022-08-17T20:26:55.486Z,1.00
2022-08-17T20:29:40.005Z,99.90
2022-08-17T20:32:28.049Z,99.90
2022-08-17T20:35:33.695Z,1.00
2022-08-17T20:38:02.295Z,1.00
2022-08-17T20:40:34.005Z,1.00
2022-08-17T20:43:32.673Z,1.00
2022-08-17T20:46:26.761Z,99.90
2022-08-17T20:49:14.978Z,99.90
2022-08-17T20:52:09.440Z,99.90
2022-08-17T20:54:48.836Z,99.90
2022-08-17T20:57:34.604Z,99.90
2022-08-17T21:00:16.332Z,99.90
2022-08-17T21:03:04.763Z,99.90
2022-08-17T21:05:57.223Z,99.90
2022-08-17T21:08:34.403Z,99.90
2022-08-17T21:12:02.477Z,99.90
2022-08-17T21:14:32.746Z,99.90
2022-08-17T21:17:36.529Z,99.90
2022-08-17T21:20:32.306Z,99.90
2022-08-17T21:23:20.677Z,99.90
2022-08-17T21:26:19.714Z,99.90
2022-08-17T21:29:00.338Z,99.90
2022-08-17T21:31:36.996Z,99.90
2022-08-17T21:34:16.237Z,99.90
2022-08-17T21:36:48.446Z,99.90
2022-08-17T21:39:21.447Z,99.90
2022-08-17T21:41:55.578Z,99.90
2022-08-17T21:44:35.940Z,99.90
2022-08-17T21:47:35.732Z,99.90
2022-08-17T21:50:24.077Z,99.90
2022-08-17T21:52:55.912Z,99.90
2022-08-17T21:55:28.442Z,99.90
2022-08-17T21:58:14.569Z,99.90
2022-08-17T22:00:44.306Z,99.90
2022-08-17T22:03:23.884Z,99.90
2022-08-17T22:05:51.471Z,99.90
2022-08-17T22:08:21.891Z,99.90
2022-08-17T22:10:51.325Z,99.90
2022-08-17T22:13:18.101Z,99.90
2022-08-17T22:15:49.685Z,99.90
2022-08-17T22:18:28.837Z,99.90
2022-08-17T22:20:57.727Z,99.90
2022-08-17T22:23:48.603Z,99.90
2022-08-17T22:26:17.682Z,99.90
2022-08-17T22:28:58.612Z,99.90
2022-08-17T22:31:49.819Z,99.90
2022-08-17T22:34:17.294Z,99.90
2022-08-17T22:36:44.048Z,99.90
2022-08-17T22:39:10.727Z,99.90
2022-08-17T22:41:43.114Z,99.90
2022-08-17T22:44:15.074Z,99.90
2022-08-17T22:47:11.367Z,99.90
2022-08-17T22:49:53.889Z,99.90
2022-08-17T22:52:59.379Z,99.90
2022-08-17T22:55:45.807Z,99.90
2022-08-17T22:58:36.937Z,99.90
2022-08-17T23:01:32.396Z,99.90
2022-08-17T23:04:02.722Z,99.90
2022-08-17T23:06:33.620Z,99.90
2022-08-17T23:09:03.779Z,99.90
2022-08-17T23:11:48.784Z,99.90
2022-08-17T23:14:19.677Z,99.90
2022-08-17T23:16:48.662Z,99.90
2022-08-17T23:19:18.799Z,99.90
2022-08-17T23:21:46.237Z,99.90
2022-08-17T23:24:22.174Z,99.90
2022-08-17T23:26:49.018Z,99.90
2022-08-17T23:29:16.587Z,99.90
2022-08-17T23:31:43.399Z,99.90
2022-08-17T23:34:13.343Z,99.90
2022-08-17T23:36:40.816Z,99.90
2022-08-17T23:39:08.055Z,99.90
2022-08-17T23:41:38.602Z,99.90
2022-08-17T23:44:06.292Z,99.90
2022-08-17T23:46:34.424Z,99.90
2022-08-17T23:49:01.395Z,99.90
2022-08-17T23:51:31.574Z,99.90
2022-08-17T23:54:08.230Z,99.90
2022-08-17T23:56:45.230Z,99.90
2022-08-17T23:59:13.753Z,99.90
